Time;durP1;ratioP1;P1;durP2;ratioP2;P2;SDS_P1;SDS_P2;PMS_P1;PMS_P2;Temp;Humidity;BMP_temperature;BMP_pressure;BME280_temperature;BME280_humidity;BME280_pressure;Samples;Min_cycle;Max_cycle;Signal;HPM_P1;HPM_P2
2023/04/21 00:02:24;;;;;;;45.23;41.53;;;;;;;20.57;42.41;94632.34;6156303;28;110242;-62
2023/04/21 00:05:27;;;;;;;45.90;42.27;;;;;;;20.57;42.54;94631.56;6173357;28;109040;-62
2023/04/21 00:08:32;;;;;;;46.43;42.63;;;;;;;20.57;42.27;94626.25;6149270;28;109270;-62
2023/04/21 00:11:35;;;;;;;45.27;41.67;;;;;;;20.56;42.40;94625.47;6143805;28;108971;-62
2023/04/21 00:14:39;;;;;;;46.37;42.47;;;;;;;20.56;42.42;94628.13;6151062;28;109083;-62
2023/04/21 00:17:42;;;;;;;44.30;40.70;;;;;;;20.55;42.44;94626.56;6165565;28;108865;-62
2023/04/21 00:20:45;;;;;;;44.67;41.00;;;;;;;20.56;42.38;94630.00;6162565;28;108982;-63
2023/04/21 00:23:50;;;;;;;45.07;41.37;;;;;;;20.55;42.35;94631.88;6172032;28;108959;-62
2023/04/21 00:26:53;;;;;;;45.63;41.83;;;;;;;20.55;42.33;94629.22;6171441;28;110260;-63
2023/04/21 00:29:56;;;;;;;45.67;41.97;;;;;;;20.54;42.19;94635.63;6167685;28;109218;-62
2023/04/21 00:32:59;;;;;;;43.53;40.13;;;;;;;20.55;42.47;94633.75;6153221;28;108908;-62
2023/04/21 00:36:02;;;;;;;45.83;42.17;;;;;;;20.53;42.42;94635.94;6157380;28;108880;-62
2023/04/21 00:39:06;;;;;;;46.47;42.60;;;;;;;20.54;42.33;94642.81;6164900;28;108993;-62
2023/04/21 00:42:09;;;;;;;44.50;40.80;;;;;;;20.53;42.21;94627.97;6182500;28;108851;-63
2023/04/21 00:45:14;;;;;;;44.17;40.60;;;;;;;20.52;42.13;94629.06;6176077;28;108911;-63
2023/04/21 00:48:17;;;;;;;44.30;40.70;;;;;;;20.51;42.25;94630.94;6153876;28;109218;-63
2023/04/21 00:51:20;;;;;;;42.20;38.63;;;;;;;20.52;42.30;94632.50;6162160;28;108888;-63
2023/04/21 00:54:25;;;;;;;43.00;39.30;;;;;;;20.51;42.25;94622.94;6163033;28;109298;-62
2023/04/21 00:57:29;;;;;;;42.10;38.67;;;;;;;20.52;42.13;94626.38;6162038;28;109009;-62
2023/04/21 01:00:32;;;;;;;42.27;38.73;;;;;;;20.51;42.13;94624.81;6150767;28;108929;-62
2023/04/21 01:03:36;;;;;;;41.80;38.40;;;;;;;20.50;42.25;94621.38;6161379;28;108953;-62
2023/04/21 01:06:41;;;;;;;39.87;36.73;;;;;;;20.51;42.31;94624.81;6162020;28;109302;-62
2023/04/21 01:09:45;;;;;;;40.30;37.10;;;;;;;20.51;42.25;94622.16;6158313;28;108964;-62
2023/04/21 01:12:48;;;;;;;40.03;36.73;;;;;;;20.50;42.29;94623.22;6157024;28;108778;-62
2023/04/21 01:15:51;;;;;;;38.23;35.23;;;;;;;20.49;42.09;94611.81;6178526;28;109139;-63
2023/04/21 01:18:55;;;;;;;38.20;35.07;;;;;;;20.48;42.10;94614.78;6167630;28;109024;-61
2023/04/21 01:22:00;;;;;;;37.43;34.23;;;;;;;20.49;42.03;94616.34;6152179;28;108941;-63
2023/04/21 01:25:04;;;;;;;38.07;34.97;;;;;;;20.46;42.07;94617.75;6176428;28;108887;-63
2023/04/21 01:28:07;;;;;;;38.40;35.23;;;;;;;20.49;42.32;94619.00;6161855;28;108869;-62
2023/04/21 01:31:10;;;;;;;36.33;33.23;;;;;;;20.49;41.91;94613.69;6170963;28;108870;-62
2023/04/21 01:34:14;;;;;;;35.87;32.97;;;;;;;20.48;42.26;94626.19;6171083;28;108976;-61
2023/04/21 01:37:24;;;;;;;36.83;33.80;;;;;;;20.46;42.09;94616.97;6186432;28;108898;-66
2023/04/21 01:40:27;;;;;;;35.70;32.70;;;;;;;20.42;41.95;94608.81;6186314;28;108996;-63
2023/04/21 01:43:30;;;;;;;35.87;32.77;;;;;;;20.46;42.06;94611.66;6154570;28;108973;-63
2023/04/21 01:46:33;;;;;;;36.20;33.30;;;;;;;20.47;42.02;94611.34;6158855;28;109145;-62
2023/04/21 01:49:37;;;;;;;33.83;31.13;;;;;;;20.45;41.97;94610.88;6168249;28;110141;-63
2023/04/21 01:52:41;;;;;;;33.67;30.97;;;;;;;20.45;42.20;94610.88;6170369;28;108892;-62
2023/04/21 01:55:44;;;;;;;33.23;30.50;;;;;;;20.46;42.01;94606.34;6160764;28;110172;-62
2023/04/21 01:58:47;;;;;;;33.97;31.20;;;;;;;20.46;41.62;94611.66;6185378;28;108918;-62
2023/04/21 02:01:50;;;;;;;32.53;29.93;;;;;;;20.44;41.90;94608.50;6165521;28;108913;-62
2023/04/21 02:04:54;;;;;;;33.80;31.13;;;;;;;20.45;42.01;94608.22;6164764;28;108774;-62
2023/04/21 02:07:58;;;;;;;33.10;30.40;;;;;;;20.45;42.03;94610.06;6150315;28;109302;-62
2023/04/21 02:11:01;;;;;;;33.93;31.13;;;;;;;20.44;41.88;94608.50;6161586;28;109018;-64
2023/04/21 02:14:04;;;;;;;36.87;33.87;;;;;;;20.44;41.84;94603.19;6161116;28;109013;-63
2023/04/21 02:17:07;;;;;;;34.30;31.57;;;;;;;20.46;41.71;94609.00;6160779;28;109165;-62
2023/04/21 02:20:12;;;;;;;34.37;31.57;;;;;;;20.43;41.99;94599.75;6161522;28;108935;-62
2023/04/21 02:23:16;;;;;;;35.30;32.43;;;;;;;20.42;41.82;94600.06;6160497;28;108879;-62
2023/04/21 02:26:20;;;;;;;35.63;32.83;;;;;;;20.44;42.18;94603.19;6161105;28;108781;-63
2023/04/21 02:29:23;;;;;;;36.87;33.87;;;;;;;20.43;41.85;94599.75;6170881;28;108996;-62
2023/04/21 02:32:27;;;;;;;36.70;33.80;;;;;;;20.42;41.66;94594.75;6159979;28;109068;-62
2023/04/21 02:35:32;;;;;;;38.43;35.10;;;;;;;20.42;41.68;94594.75;6170727;28;108854;-64
2023/04/21 02:38:37;;;;;;;37.83;34.67;;;;;;;20.41;41.96;94593.19;6160679;28;108819;-62
2023/04/21 02:41:40;;;;;;;38.10;35.00;;;;;;;20.43;41.85;94599.75;6163728;28;108871;-62
2023/04/21 02:44:43;;;;;;;39.43;36.17;;;;;;;20.44;41.36;94597.88;6160712;28;109300;-62
2023/04/21 02:47:46;;;;;;;39.00;35.90;;;;;;;20.42;41.77;94603.50;6164939;28;109238;-61
2023/04/21 02:50:49;;;;;;;39.30;36.20;;;;;;;20.41;41.47;94606.47;6159411;28;108989;-61
2023/04/21 02:53:54;;;;;;;38.10;34.97;;;;;;;20.43;41.53;94604.28;6166852;28;109516;-62
2023/04/21 02:56:57;;;;;;;38.53;35.40;;;;;;;20.43;41.59;94606.94;6163854;28;109107;-62
2023/04/21 03:00:00;;;;;;;35.93;33.07;;;;;;;20.42;41.62;94605.38;6165452;28;108936;-62
2023/04/21 03:03:03;;;;;;;37.17;34.07;;;;;;;20.43;41.81;94605.06;6165263;28;108944;-66
2023/04/21 03:06:07;;;;;;;36.97;33.97;;;;;;;20.43;41.47;94605.06;6153691;28;109018;-62
2023/04/21 03:09:11;;;;;;;37.00;34.10;;;;;;;20.42;41.59;94600.06;6165338;28;108893;-62
2023/04/21 03:12:14;;;;;;;38.07;34.70;;;;;;;20.40;41.87;94613.66;6179397;28;109148;-62
2023/04/21 03:15:18;;;;;;;38.30;35.23;;;;;;;20.42;41.78;94610.69;6155796;28;109652;-62
2023/04/21 03:18:21;;;;;;;33.90;31.10;;;;;;;20.43;42.32;94613.03;6184265;28;110383;-61
2023/04/21 03:21:24;;;;;;;32.77;29.97;;;;;;;20.43;42.26;94613.03;6160815;28;108972;-62
2023/04/21 03:24:29;;;;;;;34.17;31.17;;;;;;;20.45;42.13;94618.06;6172904;28;108898;-63
2023/04/21 03:27:32;;;;;;;36.30;33.20;;;;;;;20.44;42.28;94619.16;6162158;28;108897;-62
2023/04/21 03:30:35;;;;;;;38.63;35.63;;;;;;;20.46;42.87;94622.28;6183332;28;109003;-68
2023/04/21 03:33:38;;;;;;;39.20;35.97;;;;;;;20.51;42.80;94622.16;6164249;28;109211;-68
2023/04/21 03:36:41;;;;;;;37.60;34.00;;;;;;;20.52;43.30;94626.38;6163999;28;108914;-67
2023/04/21 03:39:46;;;;;;;37.13;34.03;;;;;;;20.53;43.22;94622.63;6163232;28;110482;-67
2023/04/21 03:42:49;;;;;;;36.53;33.70;;;;;;;20.52;43.29;94627.19;6170290;28;108867;-67
2023/04/21 03:45:52;;;;;;;34.03;31.17;;;;;;;20.53;43.07;94634.06;6163544;28;108971;-68
2023/04/21 03:48:55;;;;;;;35.73;32.20;;;;;;;20.50;43.04;94634.66;6160007;28;108990;-68
2023/04/21 03:51:58;;;;;;;22.53;20.70;;;;;;;20.42;41.51;94638.06;6160063;28;108938;-64
2023/04/21 03:55:03;;;;;;;21.43;19.50;;;;;;;20.32;41.27;94639.09;6170267;28;108953;-68
2023/04/21 03:58:07;;;;;;;18.20;16.60;;;;;;;20.25;40.49;94633.44;6165470;28;108909;-65
2023/04/21 04:01:10;;;;;;;19.00;17.40;;;;;;;20.24;40.52;94644.31;6154606;28;108995;-65
2023/04/21 04:04:13;;;;;;;18.90;17.17;;;;;;;20.27;40.82;94641.09;6162127;28;109077;-65
2023/04/21 04:07:17;;;;;;;16.53;14.70;;;;;;;20.36;40.13;94639.28;6163142;28;108923;-64
2023/04/21 04:10:21;;;;;;;14.80;13.47;;;;;;;20.29;40.05;94641.56;6182172;28;109034;-64
2023/04/21 04:13:25;;;;;;;21.57;14.77;;;;;;;20.30;40.59;94643.91;6162766;28;110169;-66
2023/04/21 04:16:28;;;;;;;16.43;14.33;;;;;;;20.41;40.63;94651.66;6169555;28;109037;-68
2023/04/21 04:19:31;;;;;;;14.03;12.70;;;;;;;20.42;40.42;94658.53;6151546;28;108884;-66
2023/04/21 04:22:35;;;;;;;13.73;12.33;;;;;;;20.30;39.58;94653.75;6164119;28;109250;-69
2023/04/21 04:25:39;;;;;;;13.60;12.40;;;;;;;20.18;39.01;94664.94;6157638;28;109808;-67
2023/04/21 04:28:42;;;;;;;15.57;12.47;;;;;;;20.10;39.14;94664.84;6162820;28;109016;-66
2023/04/21 04:31:45;;;;;;;12.80;11.47;;;;;;;20.07;39.04;94668.13;6162816;28;109021;-66
2023/04/21 04:34:51;;;;;;;16.83;12.63;;;;;;;20.05;38.86;94668.41;6153088;28;110787;-66
2023/04/21 04:37:55;;;;;;;12.47;11.47;;;;;;;20.06;39.02;94670.00;6162332;28;108897;-66
2023/04/21 04:41:01;;;;;;;13.03;11.93;;;;;;;20.02;38.77;94672.47;6163267;28;108948;-66
2023/04/21 04:44:04;;;;;;;12.20;10.93;;;;;;;20.00;38.74;94677.28;6163112;28;109042;-66
2023/04/21 04:47:07;;;;;;;12.60;11.50;;;;;;;20.03;38.64;94682.00;6152498;28;109230;-66
2023/04/21 04:50:11;;;;;;;13.00;11.70;;;;;;;20.02;38.51;94684.97;6162684;28;108782;-67
2023/04/21 04:53:14;;;;;;;12.40;11.10;;;;;;;19.99;38.40;94682.88;6161712;28;108989;-66
2023/04/21 04:56:18;;;;;;;13.43;12.23;;;;;;;19.98;38.39;94679.44;6162257;28;109028;-66
2023/04/21 04:59:21;;;;;;;12.83;11.50;;;;;;;19.98;38.43;94683.97;6152717;28;109214;-66
2023/04/21 05:02:24;;;;;;;12.50;11.40;;;;;;;19.98;38.54;94686.63;6162508;28;109032;-65
2023/04/21 05:05:28;;;;;;;13.07;11.70;;;;;;;19.99;38.56;94693.50;6162838;28;108838;-65
2023/04/21 05:08:31;;;;;;;12.23;11.13;;;;;;;19.95;38.53;94684.56;6157140;28;108921;-65
2023/04/21 05:11:35;;;;;;;12.40;11.30;;;;;;;19.97;38.35;94683.19;6156529;28;108945;-65
2023/04/21 05:14:38;;;;;;;13.30;12.10;;;;;;;20.03;39.83;94689.19;6162064;28;109082;-67
2023/04/21 05:17:41;;;;;;;13.53;11.77;;;;;;;20.08;39.11;94688.28;6162338;28;108850;-66
2023/04/21 05:20:44;;;;;;;12.33;11.27;;;;;;;20.06;38.44;94691.22;6151521;28;108914;-66
2023/04/21 05:23:47;;;;;;;12.43;11.33;;;;;;;20.01;38.53;94689.50;6161092;28;108872;-65
2023/04/21 05:26:52;;;;;;;11.70;10.70;;;;;;;20.03;38.70;94687.31;6162096;28;108873;-65
2023/04/21 05:29:55;;;;;;;12.77;11.50;;;;;;;20.07;38.66;94692.03;6162087;28;108786;-66
2023/04/21 05:32:58;;;;;;;10.70;9.80;;;;;;;20.02;38.56;94693.72;6127278;28;108990;-66
2023/04/21 05:36:01;;;;;;;9.93;9.13;;;;;;;19.99;38.66;94688.97;6137181;28;108941;-66
2023/04/21 05:39:05;;;;;;;10.37;9.57;;;;;;;19.99;38.41;94685.53;6137381;28;108987;-66
2023/04/21 05:42:11;;;;;;;9.83;8.97;;;;;;;20.03;38.44;94699.81;6134253;28;108924;-66
2023/04/21 05:45:14;;;;;;;11.70;9.63;;;;;;;20.13;38.40;94686.28;6131392;28;108874;-66
2023/04/21 05:48:17;;;;;;;10.57;9.57;;;;;;;20.19;38.39;94692.28;6136692;28;108887;-65
2023/04/21 05:51:20;;;;;;;9.47;8.57;;;;;;;20.25;38.42;94688.44;6140950;28;108915;-66
2023/04/21 05:54:23;;;;;;;11.23;9.30;;;;;;;20.30;38.33;94694.41;6151032;28;109768;-66
2023/04/21 05:57:28;;;;;;;10.13;9.20;;;;;;;20.28;38.20;94683.28;6160905;28;109034;-66
2023/04/21 06:00:31;;;;;;;10.10;9.17;;;;;;;20.31;38.46;94682.69;6161769;28;108935;-66
2023/04/21 06:03:34;;;;;;;11.20;8.33;;;;;;;20.39;38.10;94681.19;6160729;28;108899;-66
2023/04/21 06:06:37;;;;;;;10.80;9.80;;;;;;;20.43;38.18;94676.81;6150906;28;109581;-66
2023/04/21 06:09:41;;;;;;;10.00;9.00;;;;;;;20.47;38.33;94666.38;6149652;28;108995;-66
2023/04/21 06:12:45;;;;;;;9.07;8.37;;;;;;;20.49;38.25;94678.25;6161067;28;108886;-67
2023/04/21 06:15:48;;;;;;;10.07;9.20;;;;;;;20.52;38.25;94667.03;6161351;28;108932;-66
2023/04/21 06:18:51;;;;;;;9.43;8.53;;;;;;;20.55;38.12;94668.31;6151158;28;109131;-65
2023/04/21 06:21:56;;;;;;;9.80;8.30;;;;;;;20.63;38.23;94670.22;6160882;28;108855;-65
2023/04/21 06:25:00;;;;;;;9.30;7.80;;;;;;;20.67;38.37;94670.38;6160148;28;108853;-65
2023/04/21 06:28:04;;;;;;;8.40;7.70;;;;;;;20.66;38.20;94668.81;6156011;28;109061;-65
2023/04/21 06:31:08;;;;;;;8.77;7.97;;;;;;;20.73;38.50;94667.31;6156548;28;111132;-65
2023/04/21 06:34:11;;;;;;;8.83;7.93;;;;;;;20.79;38.60;94676.69;6160617;28;108922;-66
2023/04/21 06:37:15;;;;;;;9.83;7.50;;;;;;;20.78;38.88;94661.84;6161349;28;108823;-66
2023/04/21 06:40:18;;;;;;;8.10;7.50;;;;;;;20.84;38.74;94665.94;6150153;28;108986;-67
2023/04/21 06:43:23;;;;;;;8.90;7.63;;;;;;;20.86;38.67;94658.44;6160813;28;108975;-67
2023/04/21 06:46:26;;;;;;;7.93;6.57;;;;;;;20.88;38.77;94658.94;6160824;28;108958;-65
2023/04/21 06:49:29;;;;;;;7.50;6.90;;;;;;;20.91;38.51;94668.16;6160504;28;108978;-65
2023/04/21 06:52:32;;;;;;;7.67;6.90;;;;;;;20.96;38.81;94656.59;6149943;28;108927;-65
2023/04/21 06:55:35;;;;;;;7.87;7.13;;;;;;;20.99;38.78;94662.06;6159822;28;108959;-65
2023/04/21 06:58:40;;;;;;;8.00;7.20;;;;;;;20.97;38.54;94663.47;6163338;28;108958;-66
2023/04/21 07:01:43;;;;;;;8.50;7.80;;;;;;;21.04;38.97;94653.97;6160731;28;109063;-67
2023/04/21 07:04:46;;;;;;;7.73;7.07;;;;;;;21.05;38.85;94644.94;6158510;28;108896;-66
2023/04/21 07:07:49;;;;;;;7.50;6.90;;;;;;;21.06;38.93;94648.38;6164796;28;109280;-66
2023/04/21 07:10:52;;;;;;;8.53;7.87;;;;;;;21.08;38.90;94652.28;6164586;28;108785;-66
2023/04/21 07:14:00;;;;;;;7.73;7.03;;;;;;;21.13;38.82;94648.69;6154599;28;108969;-66
2023/04/21 07:17:03;;;;;;;7.73;7.13;;;;;;;21.10;38.83;94646.66;6161847;28;108917;-66
2023/04/21 07:20:07;;;;;;;8.07;7.37;;;;;;;21.12;38.79;94649.78;6140396;28;108798;-65
2023/04/21 07:23:10;;;;;;;10.57;7.30;;;;;;;21.15;38.88;94654.50;6140261;28;109016;-66
2023/04/21 07:26:14;;;;;;;7.77;7.07;;;;;;;21.17;39.12;94646.97;6128079;28;109378;-66
2023/04/21 07:29:18;;;;;;;7.20;6.60;;;;;;;21.17;38.66;94657.63;6139802;28;108891;-65
2023/04/21 07:32:21;;;;;;;8.00;7.30;;;;;;;21.12;38.65;94652.44;6139834;28;108995;-65
2023/04/21 07:35:25;;;;;;;7.13;6.53;;;;;;;21.13;38.82;94644.16;6139823;28;108977;-66
2023/04/21 07:38:28;;;;;;;8.27;7.47;;;;;;;21.13;39.30;94641.50;6129800;28;110306;-69
2023/04/21 07:41:32;;;;;;;7.30;6.70;;;;;;;21.09;39.18;94645.88;6139767;28;108885;-66
2023/04/21 07:44:37;;;;;;;7.43;6.67;;;;;;;21.08;39.43;94648.84;6139892;28;108865;-69
2023/04/21 07:47:40;;;;;;;6.93;6.30;;;;;;;21.07;39.26;94641.97;6134084;28;108871;-65
2023/04/21 07:50:43;;;;;;;6.10;5.60;;;;;;;21.14;38.97;94644.94;6135529;28;109664;-66
2023/04/21 07:53:46;;;;;;;6.93;6.33;;;;;;;21.17;38.83;94655.78;6139806;28;109032;-66
2023/04/21 07:56:49;;;;;;;6.60;6.10;;;;;;;21.14;39.13;94658.25;6139191;28;108852;-67
2023/04/21 07:59:54;;;;;;;5.77;5.37;;;;;;;21.14;38.88;94659.03;6128682;28;108959;-67
2023/04/21 08:02:57;;;;;;;5.90;5.33;;;;;;;21.10;39.11;94659.97;6138999;28;108892;-67
2023/04/21 08:06:00;;;;;;;6.70;6.10;;;;;;;21.08;39.10;94662.16;6139224;28;108976;-67
2023/04/21 08:09:04;;;;;;;6.10;5.60;;;;;;;21.05;39.31;94654.78;6138445;28;109246;-67
2023/04/21 08:12:07;;;;;;;6.20;5.70;;;;;;;21.05;39.01;94662.78;6128273;28;111608;-67
2023/04/21 08:15:12;;;;;;;5.53;5.03;;;;;;;21.04;39.13;94639.88;6139409;28;109000;-67
2023/04/21 08:18:17;;;;;;;6.07;5.47;;;;;;;21.03;39.14;94638.31;6139626;28;109007;-67
2023/04/21 08:21:24;;;;;;;6.77;5.50;;;;;;;21.00;39.40;94636.25;6137904;28;108868;-67
2023/04/21 08:24:27;;;;;;;6.00;5.50;;;;;;;20.99;39.30;94646.13;6157384;28;108928;-67
2023/04/21 08:27:30;;;;;;;6.80;6.20;;;;;;;20.97;39.05;94642.19;6162086;28;109018;-66
2023/04/21 08:30:35;;;;;;;6.27;5.67;;;;;;;21.00;38.94;94647.69;6163361;28;108882;-66
2023/04/21 08:33:38;;;;;;;6.50;6.03;;;;;;;21.01;38.64;94646.63;6152817;28;108894;-67
2023/04/21 08:37:00;;;;;;;6.00;5.50;;;;;;;21.03;38.91;94656.94;6162879;28;108918;-66
2023/04/21 08:40:03;;;;;;;6.20;5.70;;;;;;;21.02;39.10;94650.06;6162665;28;108922;-67
2023/04/21 08:43:06;;;;;;;5.60;5.20;;;;;;;21.00;38.78;94647.69;6162417;28;108876;-67
2023/04/21 08:46:12;;;;;;;5.87;5.40;;;;;;;21.03;39.00;94638.31;6152148;28;109335;-68
2023/04/21 08:49:19;;;;;;;6.33;5.83;;;;;;;21.04;39.18;94648.66;6162891;28;108939;-66
2023/04/21 08:52:22;;;;;;;7.80;6.03;;;;;;;21.06;39.10;94643.06;6162461;28;109007;-69
2023/04/21 08:55:27;;;;;;;7.00;6.30;;;;;;;21.09;39.08;94640.56;6157794;28;108980;-62
2023/04/21 08:58:30;;;;;;;5.93;5.43;;;;;;;21.11;39.56;94637.59;6155534;28;108948;-62
2023/04/21 09:02:09;;;;;;;5.83;5.27;;;;;;;21.09;39.09;94629.13;6161859;28;110002;-62
2023/04/21 09:05:22;;;;;;;5.37;4.90;;;;;;;21.11;39.17;94632.25;6161061;28;108942;-62
2023/04/21 09:08:26;;;;;;;5.50;5.00;;;;;;;21.13;39.37;94622.88;6151177;28;108778;-62
2023/04/21 09:11:33;;;;;;;5.67;5.27;;;;;;;21.17;39.15;94617.72;6161852;28;108894;-62
2023/04/21 09:14:36;;;;;;;5.73;5.23;;;;;;;21.15;39.29;94623.34;6161880;28;108861;-62
2023/04/21 09:17:41;;;;;;;5.97;5.37;;;;;;;21.17;38.97;94613.19;6162174;28;109067;-62
2023/04/21 09:20:45;;;;;;;5.67;4.90;;;;;;;21.21;39.16;94616.03;6150542;28;109198;-62
2023/04/21 09:23:49;;;;;;;5.50;5.03;;;;;;;21.18;39.10;94612.09;6161747;28;109100;-62
2023/04/21 09:26:53;;;;;;;5.73;5.33;;;;;;;21.16;38.85;94608.16;6161663;28;108966;-62
2023/04/21 09:30:03;;;;;;;5.23;4.90;;;;;;;21.14;38.92;94605.03;6156703;28;109332;-62
2023/04/21 09:33:08;;;;;;;5.37;4.97;;;;;;;21.12;39.05;94605.34;6159985;28;108875;-62
2023/04/21 09:36:28;;;;;;;4.97;4.57;;;;;;;21.09;39.18;94603.31;6162103;28;108873;-61
2023/04/21 09:39:33;;;;;;;5.47;4.97;;;;;;;21.02;39.03;94599.53;6161708;28;108944;-61
2023/04/21 09:42:57;;;;;;;5.70;5.20;;;;;;;21.03;38.98;94603.75;6150465;28;108973;-61
2023/04/21 09:46:04;;;;;;;5.73;5.20;;;;;;;21.00;39.22;94599.03;6161428;28;108979;-61
2023/04/21 09:49:11;;;;;;;5.37;4.87;;;;;;;20.96;38.78;94600.72;6161308;28;109022;-60
2023/04/21 09:52:15;;;;;;;5.27;4.90;;;;;;;20.97;38.65;94599.63;6156530;28;108953;-61
2023/04/21 09:55:25;;;;;;;5.30;4.90;;;;;;;20.92;38.83;94588.06;6156978;28;109850;-63
2023/04/21 09:58:34;;;;;;;5.33;4.83;;;;;;;20.92;38.56;94582.75;6161695;28;108826;-61
2023/04/21 10:01:37;;;;;;;5.07;4.60;;;;;;;20.93;38.99;94584.31;6160903;28;108594;-61
2023/04/21 10:04:44;;;;;;;5.33;4.90;;;;;;;20.93;39.16;94586.19;6150022;28;109162;-63
2023/04/21 10:07:49;;;;;;;5.70;5.10;;;;;;;20.92;38.61;94580.09;6161055;28;108884;-62
2023/04/21 10:10:53;;;;;;;5.20;4.77;;;;;;;20.92;38.67;94580.09;6160955;28;108920;-62
2023/04/21 10:13:56;;;;;;;5.30;4.80;;;;;;;20.90;38.78;94573.50;6160894;28;108948;-60
2023/04/21 10:17:05;;;;;;;4.80;4.40;;;;;;;20.88;38.79;94573.81;6151412;28;108901;-61
2023/04/21 10:20:15;;;;;;;6.03;4.73;;;;;;;20.88;38.73;94570.38;6161333;28;108794;-61
2023/04/21 10:23:27;;;;;;;5.17;4.77;;;;;;;20.82;38.86;94563.63;6161075;28;108884;-61
2023/04/21 10:26:34;;;;;;;5.27;4.87;;;;;;;20.91;38.36;94567.09;6155966;28;109001;-60
2023/04/21 10:29:38;;;;;;;4.80;4.40;;;;;;;20.91;38.30;94565.22;6155359;28;108903;-61
2023/04/21 10:33:03;;;;;;;6.30;4.57;;;;;;;20.93;38.55;94570.22;6161902;28;109006;-61
2023/04/21 10:36:14;;;;;;;5.10;4.70;;;;;;;20.92;38.47;94568.66;6165815;28;108735;-61
2023/04/21 10:39:27;;;;;;;4.80;4.50;;;;;;;20.89;38.57;94572.72;6154997;28;109058;-61
2023/04/21 10:42:35;;;;;;;5.30;4.80;;;;;;;20.83;38.48;94562.53;6165045;28;108937;-62
2023/04/21 10:45:39;;;;;;;6.00;5.40;;;;;;;20.91;38.69;94573.19;6164876;28;108884;-68
2023/04/21 10:48:51;;;;;;;6.10;5.53;;;;;;;20.90;38.68;94574.28;6165599;28;108853;-64
2023/04/21 10:52:07;;;;;;;5.93;5.43;;;;;;;20.86;38.45;94562.72;6157981;28;109962;-61
2023/04/21 10:55:11;;;;;;;6.10;5.60;;;;;;;20.86;38.87;94564.59;6165115;28;108928;-61
2023/04/21 10:58:16;;;;;;;6.20;5.63;;;;;;;20.91;38.74;94570.53;6165117;28;108944;-61
2023/04/21 11:01:20;;;;;;;6.30;5.80;;;;;;;20.89;38.54;94562.09;6154103;28;109144;-62
2023/04/21 11:04:23;;;;;;;5.97;5.43;;;;;;;20.85;39.00;94561.16;6163276;28;109016;-62
2023/04/21 11:07:29;;;;;;;5.70;5.20;;;;;;;20.86;38.53;94562.72;6164788;28;108898;-62
2023/04/21 11:10:42;;;;;;;6.37;5.90;;;;;;;20.90;38.84;94566.31;6164789;28;108884;-61
2023/04/21 11:13:46;;;;;;;6.30;5.90;;;;;;;20.85;38.89;94561.16;6154159;28;108884;-61
2023/04/21 11:16:49;;;;;;;6.60;6.10;;;;;;;20.88;38.81;94562.41;6164287;28;108941;-61
2023/04/21 11:19:55;;;;;;;6.23;5.73;;;;;;;20.86;38.80;94561.94;6164306;28;109005;-61
2023/04/21 11:22:59;;;;;;;6.17;5.70;;;;;;;20.88;38.66;94565.84;6163984;28;108903;-61
2023/04/21 11:26:03;;;;;;;6.40;5.80;;;;;;;20.86;38.66;94557.38;6156807;28;108921;-61
2023/04/21 11:29:08;;;;;;;6.53;5.93;;;;;;;20.85;38.65;94561.16;6164233;28;108901;-61
2023/04/21 11:32:11;;;;;;;6.40;5.80;;;;;;;20.84;38.27;94566.78;6164647;28;108814;-61
2023/04/21 11:35:14;;;;;;;6.30;5.80;;;;;;;20.83;38.48;94567.84;6153380;28;109253;-61
2023/04/21 11:38:19;;;;;;;6.30;5.40;;;;;;;20.83;38.20;94568.63;6163485;28;108877;-62
2023/04/21 11:41:23;;;;;;;5.63;5.23;;;;;;;20.80;38.24;94555.94;6164256;28;108901;-61
2023/04/21 11:44:34;;;;;;;5.70;5.30;;;;;;;20.82;38.55;94559.06;6163642;28;108933;-61
2023/04/21 11:47:38;;;;;;;5.63;5.23;;;;;;;20.82;38.10;94553.75;6153403;28;109152;-61
2023/04/21 11:50:47;;;;;;;6.03;5.53;;;;;;;20.82;38.19;94561.75;6163679;28;108941;-61
2023/04/21 11:53:52;;;;;;;6.33;5.40;;;;;;;20.82;38.17;94561.75;6163556;28;109021;-61
2023/04/21 11:56:55;;;;;;;6.20;5.67;;;;;;;20.81;38.36;94564.72;6164610;28;109150;-61
2023/04/21 11:59:59;;;;;;;6.90;6.20;;;;;;;20.81;38.26;94568.16;6153832;28;110542;-61
2023/04/21 12:03:03;;;;;;;7.00;6.40;;;;;;;20.79;38.33;94562.38;6163004;28;108893;-60
2023/04/21 12:06:06;;;;;;;6.23;5.73;;;;;;;20.77;38.39;94559.22;6162668;28;108859;-61
2023/04/21 12:09:17;;;;;;;6.60;6.00;;;;;;;20.72;38.29;94558.59;6155695;28;109323;-61
2023/04/21 12:12:22;;;;;;;6.50;5.93;;;;;;;20.76;38.30;94554.22;6163146;28;109336;-61
2023/04/21 12:15:25;;;;;;;5.53;5.03;;;;;;;20.70;38.11;94550.94;6163241;28;108840;-62
2023/04/21 12:18:28;;;;;;;6.37;5.90;;;;;;;20.78;38.32;94557.34;6163221;28;108999;-61
2023/04/21 12:21:31;;;;;;;6.00;5.60;;;;;;;20.69;38.20;94541.38;6152302;28;108928;-62
2023/04/21 12:24:36;;;;;;;5.93;5.53;;;;;;;20.77;38.11;94556.56;6163617;28;108814;-62
2023/04/21 12:27:48;;;;;;;5.90;5.50;;;;;;;20.77;38.41;94559.22;6163089;28;109038;-62
2023/04/21 12:30:51;;;;;;;5.40;5.00;;;;;;;20.80;38.30;94557.81;6162865;28;109019;-62
2023/04/21 12:33:54;;;;;;;5.10;4.70;;;;;;;20.79;38.04;94557.03;6152070;28;108965;-62
2023/04/21 12:36:57;;;;;;;5.40;5.00;;;;;;;20.79;37.88;94561.56;6161898;28;108893;-62
2023/04/21 12:40:02;;;;;;;5.10;4.80;;;;;;;20.81;37.86;94560.16;6162516;28;108974;-62
2023/04/21 12:43:05;;;;;;;5.50;5.00;;;;;;;20.78;38.17;94552.03;6157239;28;108886;-62
2023/04/21 12:46:09;;;;;;;4.60;4.30;;;;;;;20.80;38.21;94558.59;6157115;28;108883;-61
2023/04/21 12:49:13;;;;;;;4.70;4.40;;;;;;;20.80;37.88;94547.97;6162852;28;108859;-61
2023/04/21 12:52:16;;;;;;;4.93;4.63;;;;;;;20.81;37.78;94562.06;6162829;28;108901;-61
2023/04/21 12:55:20;;;;;;;4.70;4.30;;;;;;;20.79;37.84;94556.25;6151060;28;109198;-70
2023/04/21 12:58:23;;;;;;;4.87;4.40;;;;;;;20.77;37.81;94553.13;6162776;28;108912;-61
2023/04/21 13:01:27;;;;;;;5.50;5.10;;;;;;;20.77;37.49;94547.81;6162136;28;108912;-61
2023/04/21 13:04:30;;;;;;;5.47;5.07;;;;;;;20.80;38.01;94552.50;6161813;28;108924;-62
2023/04/21 13:07:34;;;;;;;5.27;4.77;;;;;;;20.78;38.03;94544.84;6150802;28;108892;-62
2023/04/21 13:10:39;;;;;;;5.77;5.27;;;;;;;20.79;37.56;94549.06;6162083;28;108885;-61
2023/04/21 13:13:42;;;;;;;5.60;5.10;;;;;;;20.80;37.48;94549.84;6161930;28;108900;-61
2023/04/21 13:16:45;;;;;;;7.07;6.37;;;;;;;20.80;37.74;94547.97;6157885;28;108908;-61
2023/04/21 13:19:48;;;;;;;7.30;6.80;;;;;;;20.80;37.45;94547.97;6155715;28;108953;-61
2023/04/21 13:22:51;;;;;;;6.13;5.63;;;;;;;20.79;37.68;94538.44;6161755;28;108907;-61
2023/04/21 13:25:55;;;;;;;6.47;5.97;;;;;;;20.82;37.84;94547.66;6161952;28;108914;-61
2023/04/21 13:28:59;;;;;;;5.57;5.17;;;;;;;20.80;37.48;94547.97;6152171;28;108853;-61
2023/04/21 13:32:02;;;;;;;6.40;5.57;;;;;;;20.78;37.66;94544.84;6161668;28;108859;-61
2023/04/21 13:35:08;;;;;;;6.33;5.77;;;;;;;20.79;37.82;94543.75;6161648;28;108950;-62
2023/04/21 13:38:11;;;;;;;6.90;6.30;;;;;;;20.78;37.35;94542.19;6161208;28;108750;-62
2023/04/21 13:41:16;;;;;;;6.10;5.60;;;;;;;20.78;37.46;94547.50;6151466;28;109033;-62
2023/04/21 13:44:20;;;;;;;6.17;5.60;;;;;;;20.70;37.39;94532.31;6161842;28;108869;-62
2023/04/21 13:47:23;;;;;;;5.90;5.40;;;;;;;20.76;37.52;94541.72;6161906;28;108977;-62
2023/04/21 13:50:27;;;;;;;6.07;5.63;;;;;;;20.76;37.33;94539.06;6161460;28;108964;-62
2023/04/21 13:53:30;;;;;;;6.10;5.60;;;;;;;20.76;37.31;94541.72;6150768;28;108890;-64
2023/04/21 13:56:35;;;;;;;6.23;5.80;;;;;;;20.75;37.02;94545.47;6161805;28;109021;-65
2023/04/21 13:59:38;;;;;;;6.30;5.87;;;;;;;20.74;37.16;94538.59;6161558;28;108856;-62
2023/04/21 14:02:41;;;;;;;6.47;5.87;;;;;;;20.74;36.97;94538.59;6156189;28;108818;-62
2023/04/21 14:05:44;;;;;;;6.63;5.83;;;;;;;20.75;36.81;94542.81;6157726;28;108815;-62
2023/04/21 14:08:48;;;;;;;6.80;6.30;;;;;;;20.76;37.16;94535.59;6159233;28;108894;-62
2023/04/21 14:11:52;;;;;;;6.23;5.73;;;;;;;20.74;36.82;94532.47;6161013;28;108842;-61